Daleville, Alabama
Current Conditions -  °F | °C
As of 10:58 PM on Friday 24 Oct 2014 (Local Time) from KOZR Reporting Station
Clear Clear  
Wind Chill: 13°   Ceiling: Unl
Heat Index: 13°   Visibility: 10mi
Dew Point:   Wind: 3mph
Humidity: 75%   Direction: 330°NNW
Pressure: 30.04"   Gusts: NA
Location:  31.31°N, 85.71°W
Report Text: KOZR 250358Z AUTO 33003KT 10SM CLR 13/08 A3004 RMK AO2 SLP174 T01260082
Loading
Personal Weather Stations






























Interactive Weather Map
Tropical Storm Tracking
New forecast layout! Learn more

10-Day Weather Forecast

Advertisements
Track Severe Weather on mobile